Time;durP1;ratioP1;P1;durP2;ratioP2;P2;SDS_P1;SDS_P2;PMS_P1;PMS_P2;Temp;Humidity;BMP_temperature;BMP_pressure;BME280_temperature;BME280_humidity;BME280_pressure;Samples;Min_cycle;Max_cycle;Signal;HPM_P1;HPM_P2
2022/06/22 00:00:43;;;;;;;3.22;2.03;;;;;;;22.29;45.20;101386.16;5105433;28;20031;-60
2022/06/22 00:03:09;;;;;;;3.13;2.00;;;;;;;22.28;45.41;101387.19;5105172;28;20016;-59
2022/06/22 00:05:49;;;;;;;2.90;1.70;;;;;;;22.21;45.20;101379.75;5087917;28;20107;-60
2022/06/22 00:08:46;;;;;;;3.22;1.92;;;;;;;22.27;45.29;101394.47;5105643;28;20020;-60
2022/06/22 00:11:14;;;;;;;3.30;1.90;;;;;;;22.25;45.34;101391.06;5117740;28;20121;-60
2022/06/22 00:13:47;;;;;;;3.80;2.00;;;;;;;22.25;45.38;101391.06;5107522;28;20051;-60
2022/06/22 00:16:18;;;;;;;3.35;1.80;;;;;;;22.17;45.46;101377.56;5126089;28;20027;-60
2022/06/22 00:18:49;;;;;;;4.28;1.95;;;;;;;22.23;45.10;101390.41;5125040;28;20023;-60
2022/06/22 00:21:14;;;;;;;3.95;2.08;;;;;;;22.23;45.34;101392.28;5125878;28;20047;-60
2022/06/22 00:23:43;;;;;;;3.15;1.90;;;;;;;22.20;45.22;101396.19;5125058;28;20031;-59
2022/06/22 00:26:24;;;;;;;3.35;1.75;;;;;;;22.21;45.15;101401.41;5125842;28;20091;-59
2022/06/22 00:29:18;;;;;;;3.15;2.17;;;;;;;22.19;45.36;101406.19;5125496;28;20061;-59
2022/06/22 00:31:44;;;;;;;3.10;1.95;;;;;;;22.19;45.39;101408.88;5125828;28;20103;-60
2022/06/22 00:34:10;;;;;;;2.95;2.00;;;;;;;22.18;45.35;101409.09;5106612;28;20148;-60
2022/06/22 00:36:39;;;;;;;3.75;2.17;;;;;;;22.17;45.18;101407.38;5125746;28;20495;-60
2022/06/22 00:39:29;;;;;;;4.68;2.10;;;;;;;22.17;45.07;101410.94;5125181;28;20039;-60
2022/06/22 00:42:15;;;;;;;3.33;2.10;;;;;;;22.15;45.05;101410.28;5125430;28;20034;-59
2022/06/22 00:45:08;;;;;;;3.55;2.03;;;;;;;22.15;44.87;101410.28;5125137;28;20044;-60
2022/06/22 00:47:38;;;;;;;2.65;1.70;;;;;;;22.06;44.82;101402.34;5097129;28;20774;-60
2022/06/22 00:50:09;;;;;;;4.93;2.55;;;;;;;22.14;44.92;101421.28;5124889;28;20066;-60
2022/06/22 00:52:41;;;;;;;5.35;1.70;;;;;;;22.12;44.94;101424.16;5125442;28;20043;-60
2022/06/22 00:55:24;;;;;;;3.35;1.88;;;;;;;22.12;44.74;101423.28;5107453;28;20024;-60
2022/06/22 00:57:57;;;;;;;3.40;2.05;;;;;;;22.10;44.96;101415.34;5107207;28;20041;-60
2022/06/22 01:00:23;;;;;;;3.15;2.85;;;;;;;22.10;44.95;101411.81;5125200;28;20032;-60
2022/06/22 01:02:55;;;;;;;3.38;1.95;;;;;;;22.08;44.64;101408.41;5096969;28;20031;-59
2022/06/22 01:05:27;;;;;;;3.95;2.45;;;;;;;22.08;44.70;101411.13;5120863;28;20024;-59
2022/06/22 01:08:25;;;;;;;4.15;1.85;;;;;;;22.07;44.93;101425.69;5106398;28;20096;-60
2022/06/22 01:10:55;;;;;;;3.13;1.88;;;;;;;22.05;44.97;101423.16;5095180;28;20034;-60
2022/06/22 01:13:35;;;;;;;3.40;1.92;;;;;;;22.03;44.71;101403.53;5106435;28;20042;-60
2022/06/22 01:16:06;;;;;;;3.38;1.88;;;;;;;22.03;44.61;101408.09;5107119;28;20024;-60
2022/06/22 01:18:35;;;;;;;2.65;1.90;;;;;;;22.01;44.44;101411.00;5105620;28;20049;-60
2022/06/22 01:21:03;;;;;;;;;;;;;;;22.00;44.78;101405.75;5087187;28;20028;-60
2022/06/22 01:23:56;;;;;;;3.45;1.58;;;;;;;22.00;44.45;101397.63;5104680;28;19908;-60
2022/06/22 01:26:59;;;;;;;2.70;1.80;;;;;;;21.96;44.48;101394.41;5104673;28;20043;-60
2022/06/22 01:29:25;;;;;;;4.97;1.95;;;;;;;21.89;44.46;101383.47;5104453;28;20302;-60
2022/06/22 01:31:59;;;;;;;3.53;2.10;;;;;;;21.95;44.23;101390.88;5104934;28;20024;-60
2022/06/22 01:34:25;;;;;;;3.50;1.80;;;;;;;21.95;44.35;101384.63;5088266;28;20555;-59
2022/06/22 01:36:51;;;;;;;4.90;2.05;;;;;;;21.94;44.23;101380.22;5101724;28;20027;-60
2022/06/22 01:39:16;;;;;;;3.38;1.73;;;;;;;21.94;44.40;101377.53;5127987;28;20383;-60
2022/06/22 01:41:48;;;;;;;2.65;1.88;;;;;;;21.93;44.48;101373.13;5128545;28;20024;-59
2022/06/22 01:44:18;;;;;;;2.75;1.80;;;;;;;21.92;44.53;101369.59;5128083;28;20043;-60
2022/06/22 01:47:13;;;;;;;2.35;2.00;;;;;;;21.92;44.47;101372.28;5128874;28;20046;-60
2022/06/22 01:50:01;;;;;;;3.33;1.98;;;;;;;21.91;44.46;101377.88;5109874;28;20089;-60
2022/06/22 01:53:04;;;;;;;3.05;1.85;;;;;;;21.90;44.27;101377.03;5128941;28;20065;-59
2022/06/22 01:55:42;;;;;;;3.03;1.98;;;;;;;21.90;44.45;101374.31;5110321;28;20032;-60
2022/06/22 01:58:19;;;;;;;3.58;2.00;;;;;;;21.89;44.17;101372.66;5128409;28;20024;-59
2022/06/22 02:00:49;;;;;;;2.42;1.90;;;;;;;21.87;44.29;101371.13;5128126;28;20096;-58
2022/06/22 02:03:32;;;;;;;3.60;2.10;;;;;;;21.80;44.23;101356.63;5109802;28;20312;-59
2022/06/22 02:09:04;;;;;;;5.07;2.30;;;;;;;21.84;43.92;101366.91;5112257;28;20027;-59
2022/06/22 02:11:34;;;;;;;2.33;1.73;;;;;;;21.84;44.28;101374.19;5112041;28;20024;-60
2022/06/22 02:14:08;;;;;;;3.03;1.88;;;;;;;21.83;44.27;101377.91;5089397;28;20024;-60
2022/06/22 02:16:43;;;;;;;2.33;1.70;;;;;;;21.82;43.79;101378.94;5090243;28;20093;-60
2022/06/22 02:19:12;;;;;;;3.47;2.10;;;;;;;21.81;44.08;101378.09;5088675;28;20031;-59
2022/06/22 02:21:54;;;;;;;3.17;2.00;;;;;;;21.81;43.87;101388.06;5107557;28;20059;-60
2022/06/22 02:24:32;;;;;;;3.33;2.22;;;;;;;21.80;43.85;101394.53;5107213;28;20038;-60
2022/06/22 02:27:03;;;;;;;3.42;2.25;;;;;;;21.79;43.81;101398.22;5107541;28;20036;-59
2022/06/22 02:29:31;;;;;;;3.80;1.90;;;;;;;21.78;43.75;101397.38;5106841;28;20012;-60
2022/06/22 02:31:59;;;;;;;2.20;1.60;;;;;;;21.73;43.82;101386.25;5107364;28;20069;-60
2022/06/22 02:34:24;;;;;;;3.10;1.83;;;;;;;21.76;43.51;101393.19;5106551;28;20028;-60
2022/06/22 02:36:51;;;;;;;2.83;2.20;;;;;;;21.75;43.64;101383.34;5089284;28;20503;-60
2022/06/22 02:39:17;;;;;;;2.05;1.85;;;;;;;21.74;43.48;101374.41;5088417;28;20473;-60
2022/06/22 02:44:31;;;;;;;2.72;1.90;;;;;;;21.73;43.65;101372.72;5106545;28;20062;-60
2022/06/22 02:46:58;;;;;;;3.00;2.10;;;;;;;21.73;43.51;101370.00;5088741;28;20578;-60
2022/06/22 02:49:33;;;;;;;2.92;2.05;;;;;;;21.71;43.34;101366.66;5088009;28;20031;-58
2022/06/22 02:51:59;;;;;;;2.72;1.77;;;;;;;21.70;43.80;101368.50;5088974;28;20032;-60
2022/06/22 02:54:32;;;;;;;4.00;2.42;;;;;;;21.70;43.78;101373.91;5106704;28;20016;-58
2022/06/22 02:57:15;;;;;;;3.40;2.20;;;;;;;21.70;43.47;101367.66;5107034;28;20016;-60
2022/06/22 02:59:41;;;;;;;2.67;2.10;;;;;;;21.68;43.75;101367.84;5088116;28;20040;-61
2022/06/22 03:02:07;;;;;;;2.78;1.92;;;;;;;21.66;43.34;101350.94;5088775;28;20023;-60
2022/06/22 03:04:32;;;;;;;2.78;2.25;;;;;;;21.63;43.35;101343.16;5087694;28;20340;-61
2022/06/22 03:06:58;;;;;;;2.40;2.00;;;;;;;21.67;43.61;101343.66;5106605;28;20028;-59
2022/06/22 03:09:26;;;;;;;2.38;1.90;;;;;;;21.64;43.25;101334.03;5106087;28;20020;-59
2022/06/22 03:11:55;;;;;;;2.92;2.00;;;;;;;21.62;43.35;101322.53;5125152;28;20070;-58
2022/06/22 03:14:35;;;;;;;4.13;2.00;;;;;;;21.60;43.40;101304.78;5126727;28;20034;-59
2022/06/22 03:17:06;;;;;;;4.47;2.22;;;;;;;21.61;43.65;101303.75;5109233;28;20020;-59
2022/06/22 03:19:47;;;;;;;2.40;2.20;;;;;;;21.52;43.20;101275.91;5108051;28;20020;-59
2022/06/22 03:22:26;;;;;;;2.78;2.22;;;;;;;21.59;43.48;101279.59;5126871;28;20023;-59
2022/06/22 03:25:00;;;;;;;3.60;2.30;;;;;;;21.58;43.41;101280.63;5108658;28;20026;-59
2022/06/22 03:27:29;;;;;;;2.78;1.70;;;;;;;21.52;43.46;101278.63;5108433;28;20081;-58
2022/06/22 03:29:58;;;;;;;3.25;2.15;;;;;;;21.58;43.21;101294.16;5126307;28;20034;-59
2022/06/22 03:32:25;;;;;;;;;;;;;;;21.56;43.20;101289.94;5126998;28;20032;-59
2022/06/22 03:34:55;;;;;;;3.08;2.30;;;;;;;21.57;43.29;101297.00;5108181;28;19946;-59
2022/06/22 03:37:26;;;;;;;5.30;2.53;;;;;;;21.54;43.32;101290.13;5108113;28;20020;-60
2022/06/22 03:39:56;;;;;;;3.60;2.08;;;;;;;21.53;43.74;101296.53;5107651;28;20031;-59
2022/06/22 03:42:46;;;;;;;2.60;1.80;;;;;;;21.53;43.42;101283.00;5108057;28;20150;-59
2022/06/22 03:45:21;;;;;;;3.67;2.40;;;;;;;21.47;43.69;101275.59;5107926;28;20044;-59
2022/06/22 03:47:56;;;;;;;4.18;2.40;;;;;;;21.50;43.39;101288.78;5108241;28;20123;-59
2022/06/22 03:50:55;;;;;;;4.45;2.22;;;;;;;21.51;43.81;101290.47;5125765;28;20023;-59
2022/06/22 03:53:41;;;;;;;3.13;2.33;;;;;;;21.50;43.46;101294.19;5126277;28;20024;-59
2022/06/22 03:56:10;;;;;;;3.25;2.42;;;;;;;21.48;43.56;101288.09;5126198;28;20568;-60
2022/06/22 03:58:37;;;;;;;3.75;2.45;;;;;;;21.48;43.52;101288.09;5125825;28;20411;-60
2022/06/22 04:01:03;;;;;;;3.65;2.10;;;;;;;21.43;43.70;101288.63;5107869;28;20027;-60
2022/06/22 04:03:28;;;;;;;2.88;2.00;;;;;;;21.46;43.62;101288.28;5125569;28;20046;-59
2022/06/22 04:05:56;;;;;;;3.33;2.10;;;;;;;21.49;43.45;101300.59;5125969;28;20104;-60
2022/06/22 04:08:24;;;;;;;3.50;2.30;;;;;;;21.48;43.28;101301.63;5107354;28;20026;-59
2022/06/22 04:10:54;;;;;;;2.45;1.95;;;;;;;21.47;43.50;101313.47;5097360;28;20048;-60
2022/06/22 04:13:23;;;;;;;4.70;2.25;;;;;;;21.47;43.49;101329.69;5087230;28;20053;-59
2022/06/22 04:15:54;;;;;;;3.30;1.90;;;;;;;21.45;43.19;101335.31;5105617;28;20024;-59
2022/06/22 04:18:22;;;;;;;2.03;1.83;;;;;;;21.44;43.62;101341.72;5087086;28;20448;-60
2022/06/22 04:20:50;;;;;;;2.88;2.08;;;;;;;21.44;43.43;101346.28;5105267;28;20039;-60
2022/06/22 04:23:46;;;;;;;5.63;2.55;;;;;;;21.43;43.49;101353.56;5105501;28;20032;-60
2022/06/22 04:26:17;;;;;;;3.13;2.28;;;;;;;21.43;43.49;101361.66;5081149;28;20032;-60
2022/06/22 04:28:46;;;;;;;2.33;1.88;;;;;;;21.42;43.38;101359.16;5087067;28;20020;-60
2022/06/22 04:31:15;;;;;;;;;;;;;;;21.42;43.64;101362.69;5105465;28;20024;-60
2022/06/22 04:33:48;;;;;;;3.35;2.22;;;;;;;21.41;43.61;101363.72;5086966;28;19942;-60
2022/06/22 04:36:19;;;;;;;3.25;2.00;;;;;;;21.40;43.56;101364.72;5105118;28;20438;-60
2022/06/22 04:39:07;;;;;;;3.38;2.20;;;;;;;21.40;43.45;101366.56;5086809;28;20050;-59
2022/06/22 04:41:39;;;;;;;2.53;2.17;;;;;;;21.31;43.82;101340.53;5087094;28;20028;-58
2022/06/22 04:44:21;;;;;;;3.00;2.00;;;;;;;21.40;43.69;101361.16;5105034;28;20087;-59
2022/06/22 04:46:51;;;;;;;4.07;2.30;;;;;;;21.33;43.80;101352.94;5105464;28;20118;-59
2022/06/22 04:49:29;;;;;;;2.35;2.08;;;;;;;21.39;43.66;101368.44;5086034;28;20028;-60
2022/06/22 04:51:59;;;;;;;5.38;2.50;;;;;;;21.38;43.71;101366.75;5087036;28;20083;-60
2022/06/22 04:54:33;;;;;;;3.25;2.40;;;;;;;21.39;43.62;101360.34;5087005;28;20087;-59
2022/06/22 04:57:03;;;;;;;3.00;2.25;;;;;;;21.39;44.00;101363.03;5105218;28;20030;-60
2022/06/22 04:59:29;;;;;;;3.20;2.17;;;;;;;21.39;43.89;101360.34;5086702;28;20059;-60
2022/06/22 05:01:57;;;;;;;3.30;2.22;;;;;;;21.39;44.00;101356.78;5087081;28;20453;-60
2022/06/22 05:04:26;;;;;;;4.60;2.60;;;;;;;21.38;44.17;101353.25;5085772;28;20020;-60
2022/06/22 05:07:10;;;;;;;;;;;;;;;21.38;44.21;101353.25;5086013;28;20028;-60
2022/06/22 05:09:40;;;;;;;2.85;2.30;;;;;;;21.38;44.16;101355.09;5107006;28;19915;-60
2022/06/22 05:12:13;;;;;;;4.65;2.70;;;;;;;21.37;44.30;101365.09;5090434;28;20020;-60
2022/06/22 05:14:39;;;;;;;3.45;2.42;;;;;;;21.36;44.45;101360.66;5090820;28;20020;-60
2022/06/22 05:17:12;;;;;;;4.32;2.60;;;;;;;21.38;44.21;101376.75;5108685;28;20032;-60
2022/06/22 05:19:53;;;;;;;5.22;2.33;;;;;;;21.31;44.14;101364.88;5089943;28;20028;-60
2022/06/22 05:22:18;;;;;;;4.15;2.60;;;;;;;21.37;44.39;101381.31;5090152;28;20020;-60
2022/06/22 05:24:48;;;;;;;5.28;2.55;;;;;;;21.38;44.64;101384.84;5108443;28;20034;-60
2022/06/22 05:27:20;;;;;;;3.83;2.65;;;;;;;21.37;44.63;101375.91;5090591;28;20028;-60
2022/06/22 05:29:48;;;;;;;5.20;2.33;;;;;;;21.38;44.59;101364.06;5090434;28;20016;-60
2022/06/22 05:32:17;;;;;;;3.63;2.70;;;;;;;21.38;44.39;101371.34;5108220;28;20534;-59
2022/06/22 05:34:44;;;;;;;3.67;2.33;;;;;;;21.39;44.51;101373.00;5107994;28;20127;-60
2022/06/22 05:37:18;;;;;;;3.00;2.50;;;;;;;21.40;44.70;101374.69;5108312;28;20020;-60
2022/06/22 05:39:44;;;;;;;2.65;2.30;;;;;;;21.38;44.54;101371.34;5107899;28;20024;-57
2022/06/22 05:42:10;;;;;;;3.45;2.65;;;;;;;21.40;44.76;101380.94;5107885;28;20024;-59
2022/06/22 05:44:36;;;;;;;3.72;2.30;;;;;;;21.38;44.80;101385.69;5107676;28;20063;-60
2022/06/22 05:47:02;;;;;;;3.17;2.53;;;;;;;21.39;44.87;101390.09;5108154;28;20039;-60
2022/06/22 05:49:36;;;;;;;2.53;2.20;;;;;;;21.33;44.62;101371.84;5107239;28;20055;-59
2022/06/22 05:52:15;;;;;;;2.90;2.30;;;;;;;21.40;44.77;101380.94;5089655;28;20484;-60
2022/06/22 05:54:53;;;;;;;2.97;2.20;;;;;;;21.40;44.97;101386.34;5089849;28;20028;-60
2022/06/22 05:57:26;;;;;;;4.65;2.38;;;;;;;21.40;44.85;101382.81;5089830;28;20020;-60
2022/06/22 06:00:00;;;;;;;3.15;2.35;;;;;;;21.41;44.51;101389.94;5089324;28;20055;-60
2022/06/22 06:02:33;;;;;;;4.88;2.55;;;;;;;21.41;44.74;101387.22;5089524;28;20031;-60
2022/06/22 06:05:09;;;;;;;3.72;2.40;;;;;;;21.41;45.10;101382.66;5107435;28;20055;-60
2022/06/22 06:07:48;;;;;;;4.38;2.60;;;;;;;21.41;44.77;101388.06;5089693;28;20055;-60
2022/06/22 06:10:21;;;;;;;3.28;2.60;;;;;;;21.41;45.10;101388.06;5090908;28;20012;-60
2022/06/22 06:12:59;;;;;;;2.95;2.47;;;;;;;21.40;44.79;101394.47;5106241;28;20028;-61
2022/06/22 06:15:24;;;;;;;3.80;2.45;;;;;;;21.40;44.73;101396.34;5107624;28;20541;-59
2022/06/22 06:17:53;;;;;;;3.45;2.35;;;;;;;21.42;44.83;101395.16;5107350;28;20053;-60
2022/06/22 06:20:25;;;;;;;5.05;2.53;;;;;;;21.42;45.11;101408.69;5087336;28;20093;-61
2022/06/22 06:22:55;;;;;;;5.28;2.25;;;;;;;21.41;45.10;101407.00;5107343;28;20031;-60
2022/06/22 06:28:16;;;;;;;;;;;;;;;21.43;44.90;101412.22;5106710;28;20174;-60
2022/06/22 06:30:52;;;;;;;4.15;2.80;;;;;;;21.43;44.88;101410.38;5088897;28;20008;-60
2022/06/22 06:33:26;;;;;;;3.15;2.10;;;;;;;21.42;45.11;101411.38;5088682;28;20091;-59
2022/06/22 06:35:55;;;;;;;4.45;2.65;;;;;;;21.43;45.08;101413.06;5107371;28;20043;-60
2022/06/22 06:38:29;;;;;;;3.55;2.20;;;;;;;21.45;45.43;101418.28;5088635;28;20020;-60
2022/06/22 06:41:13;;;;;;;3.03;2.72;;;;;;;21.44;45.25;101406.63;5106781;28;20039;-60
2022/06/22 06:43:44;;;;;;;2.95;1.92;;;;;;;21.44;45.04;101406.63;5106443;28;20059;-60
2022/06/22 06:46:18;;;;;;;3.38;2.33;;;;;;;21.44;44.98;101409.34;5088956;28;20032;-60
2022/06/22 06:48:48;;;;;;;2.92;1.92;;;;;;;21.45;45.10;101408.34;5105027;28;20048;-60
2022/06/22 06:51:15;;;;;;;2.60;1.85;;;;;;;21.46;45.23;101412.72;5088399;28;20032;-60
2022/06/22 06:53:48;;;;;;;3.25;2.30;;;;;;;21.47;45.12;101405.47;5106475;28;20457;-60
2022/06/22 06:56:19;;;;;;;3.80;2.30;;;;;;;21.48;45.22;101404.44;5088576;28;20051;-60
2022/06/22 06:58:50;;;;;;;5.18;2.25;;;;;;;21.48;45.21;101400.88;5088165;28;20526;-60
2022/06/22 07:01:22;;;;;;;3.45;2.33;;;;;;;21.49;45.05;101406.09;5087997;28;20376;-60
2022/06/22 07:03:49;;;;;;;3.63;1.70;;;;;;;21.49;45.29;101400.69;5106168;28;20035;-60
2022/06/22 07:06:15;;;;;;;3.78;2.78;;;;;;;21.50;44.93;101401.56;5088370;28;20028;-60
2022/06/22 07:08:48;;;;;;;5.20;2.28;;;;;;;21.51;45.23;101404.09;5106094;28;20024;-61
2022/06/22 07:11:31;;;;;;;3.03;1.85;;;;;;;21.51;45.32;101406.78;5088017;28;20050;-60
2022/06/22 07:14:03;;;;;;;4.95;1.95;;;;;;;21.45;45.36;101385.84;5088398;28;20095;-61
2022/06/22 07:16:28;;;;;;;2.95;2.00;;;;;;;21.52;45.02;101405.78;5088341;28;20032;-60
2022/06/22 07:19:07;;;;;;;5.82;2.58;;;;;;;21.54;45.44;101402.91;5105745;28;20063;-60
2022/06/22 07:21:35;;;;;;;3.10;2.25;;;;;;;21.55;45.44;101401.88;5088212;28;20032;-60
2022/06/22 07:24:13;;;;;;;4.78;1.83;;;;;;;21.55;45.35;101401.88;5106297;28;20035;-60
2022/06/22 07:26:47;;;;;;;3.10;2.17;;;;;;;21.56;45.48;101398.16;5088219;28;20100;-60
2022/06/22 07:29:35;;;;;;;5.90;2.30;;;;;;;21.57;45.02;101397.97;5105836;28;20024;-60
2022/06/22 07:32:30;;;;;;;3.60;2.20;;;;;;;21.58;44.98;101388.84;5087738;28;20020;-60
2022/06/22 07:35:19;;;;;;;4.07;2.10;;;;;;;21.60;45.23;101380.56;5081301;28;20032;-60
2022/06/22 07:38:00;;;;;;;4.07;2.30;;;;;;;21.59;45.04;101374.31;5091379;28;20055;-60
2022/06/22 07:40:27;;;;;;;4.63;1.92;;;;;;;21.62;45.23;101375.78;5087027;28;20028;-60
2022/06/22 07:42:55;;;;;;;4.60;2.65;;;;;;;21.63;45.25;101377.50;5105784;28;20028;-60
2022/06/22 07:45:22;;;;;;;2.65;1.83;;;;;;;21.64;45.09;101385.44;5087212;28;20044;-60
2022/06/22 07:48:06;;;;;;;2.50;2.03;;;;;;;21.65;44.99;101383.56;5087470;28;20091;-61
2022/06/22 07:50:40;;;;;;;3.53;2.00;;;;;;;21.67;45.07;101382.38;5086826;28;20020;-60
2022/06/22 07:53:31;;;;;;;2.95;1.60;;;;;;;21.69;45.20;101387.63;5087664;28;20031;-60
2022/06/22 07:56:17;;;;;;;2.50;1.85;;;;;;;21.72;44.87;101381.88;5102558;28;20036;-61
2022/06/22 07:58:49;;;;;;;2.55;1.73;;;;;;;21.74;45.19;101382.50;5087371;28;20024;-60
2022/06/22 08:01:18;;;;;;;2.63;1.80;;;;;;;21.76;44.96;101385.06;5087278;28;20020;-60
2022/06/22 08:03:49;;;;;;;2.53;2.08;;;;;;;21.76;45.10;101382.34;5086855;28;20028;-61
2022/06/22 08:06:19;;;;;;;2.85;2.10;;;;;;;21.74;44.83;101376.25;5087746;28;20031;-60
2022/06/22 08:08:56;;;;;;;2.80;2.00;;;;;;;21.79;44.98;101379.28;5086920;28;20032;-58
2022/06/22 08:11:27;;;;;;;2.67;1.83;;;;;;;21.83;45.11;101380.63;5119881;28;20034;-60
2022/06/22 08:13:57;;;;;;;3.55;1.75;;;;;;;21.84;45.21;101376.91;5107265;28;20020;-60
2022/06/22 08:16:29;;;;;;;3.15;2.00;;;;;;;21.86;44.90;101366.72;5107860;28;20087;-60
2022/06/22 08:18:55;;;;;;;2.78;1.90;;;;;;;21.78;45.05;101351.38;5106804;28;20031;-59
2022/06/22 08:21:21;;;;;;;3.72;1.75;;;;;;;21.88;44.88;101362.00;5125457;28;20053;-60
2022/06/22 08:23:47;;;;;;;2.55;1.95;;;;;;;21.89;44.74;101363.69;5125518;28;20028;-60
2022/06/22 08:26:23;;;;;;;2.80;1.70;;;;;;;21.88;45.14;101362.84;5107407;28;20030;-60
2022/06/22 08:28:49;;;;;;;2.42;1.60;;;;;;;21.92;44.88;101363.34;5107321;28;20043;-60
2022/06/22 08:31:14;;;;;;;3.97;2.20;;;;;;;21.92;45.03;101366.88;5107035;28;20034;-60
2022/06/22 08:33:43;;;;;;;2.58;1.88;;;;;;;21.93;45.09;101363.16;5125232;28;20546;-59
2022/06/22 08:36:14;;;;;;;3.50;1.83;;;;;;;21.94;44.62;101359.41;5107382;28;20083;-59
2022/06/22 08:38:48;;;;;;;3.47;1.70;;;;;;;21.96;44.73;101356.50;5125623;28;20027;-60
2022/06/22 08:41:31;;;;;;;3.35;1.85;;;;;;;21.98;44.75;101364.47;5106887;28;20024;-60
2022/06/22 08:44:07;;;;;;;3.28;1.85;;;;;;;21.94;44.65;101361.28;5108956;28;20052;-60
2022/06/22 08:47:00;;;;;;;2.75;1.50;;;;;;;22.01;44.76;101364.97;5129821;28;20106;-59
2022/06/22 08:49:55;;;;;;;3.22;1.60;;;;;;;22.02;44.81;101369.34;5128844;28;20027;-59
2022/06/22 08:52:34;;;;;;;3.53;2.30;;;;;;;22.02;45.09;101369.34;5111227;28;20083;-60
2022/06/22 08:55:25;;;;;;;4.20;1.80;;;;;;;22.03;44.69;101371.03;5111027;28;20024;-60
2022/06/22 08:58:07;;;;;;;3.38;2.08;;;;;;;22.04;44.75;101363.75;5087441;28;20072;-60
2022/06/22 09:00:49;;;;;;;2.25;1.30;;;;;;;22.05;44.75;101374.44;5111088;28;20104;-59
2022/06/22 09:03:41;;;;;;;2.50;1.95;;;;;;;22.00;44.82;101370.53;5129596;28;20015;-59
2022/06/22 09:06:13;;;;;;;2.85;1.42;;;;;;;22.08;44.67;101370.50;5094274;28;20020;-59
2022/06/22 09:08:56;;;;;;;2.08;1.58;;;;;;;22.09;44.35;101372.19;5129211;28;20028;-60
2022/06/22 09:11:52;;;;;;;2.30;1.42;;;;;;;22.10;44.40;101379.31;5095947;28;20019;-60
2022/06/22 09:14:28;;;;;;;2.83;1.55;;;;;;;22.10;44.42;101382.84;5108286;28;20073;-60
2022/06/22 09:17:15;;;;;;;2.42;1.35;;;;;;;22.12;44.45;101382.66;5090652;28;20024;-59
2022/06/22 09:20:02;;;;;;;2.90;1.42;;;;;;;22.14;44.78;101396.91;5107888;28;20024;-60
2022/06/22 09:22:46;;;;;;;1.95;1.50;;;;;;;22.14;44.69;101397.75;5090226;28;20028;-59
2022/06/22 09:25:17;;;;;;;2.15;1.55;;;;;;;22.16;44.69;101395.69;5108732;28;20032;-60
2022/06/22 09:27:48;;;;;;;2.40;1.75;;;;;;;22.17;44.53;101396.53;5108458;28;20016;-59
2022/06/22 09:30:41;;;;;;;1.70;1.35;;;;;;;22.19;44.60;101405.34;5107971;28;20471;-59
2022/06/22 09:33:15;;;;;;;2.00;1.27;;;;;;;22.21;44.88;101404.13;5053906;28;20040;-60
2022/06/22 09:35:49;;;;;;;2.83;1.25;;;;;;;22.22;44.91;101396.88;5107639;28;20035;-60
2022/06/22 09:38:35;;;;;;;2.30;1.65;;;;;;;22.25;44.65;101403.78;5108201;28;20080;-60
2022/06/22 09:41:09;;;;;;;1.38;0.98;;;;;;;22.27;45.08;101407.16;5108011;28;20027;-60
2022/06/22 09:44:04;;;;;;;1.60;1.30;;;;;;;22.27;45.01;101396.34;5089605;28;20020;-59
2022/06/22 09:47:07;;;;;;;4.13;1.63;;;;;;;22.29;44.75;101399.69;5089991;28;20024;-59
2022/06/22 09:49:56;;;;;;;3.08;1.02;;;;;;;22.30;44.68;101404.06;5107339;28;20126;-60
2022/06/22 09:52:36;;;;;;;1.90;1.30;;;;;;;22.32;44.44;101402.06;5107939;28;20051;-60
2022/06/22 09:58:41;;;;;;;3.72;1.50;;;;;;;22.34;44.34;101410.81;5073962;28;20062;-59
2022/06/22 10:01:18;;;;;;;1.65;1.00;;;;;;;22.35;44.67;101413.38;5089451;28;20020;-60
2022/06/22 10:04:00;;;;;;;2.63;1.75;;;;;;;22.36;44.65;101409.63;5089510;28;20028;-60
2022/06/22 10:06:48;;;;;;;1.63;1.30;;;;;;;22.37;44.69;101397.75;5107736;28;20362;-58
2022/06/22 10:09:47;;;;;;;2.58;1.30;;;;;;;22.38;44.46;101394.03;5107465;28;20020;-59
2022/06/22 10:12:44;;;;;;;1.88;1.33;;;;;;;22.40;44.48;101377.63;5107335;28;20103;-59
2022/06/22 10:15:24;;;;;;;2.97;1.30;;;;;;;22.42;44.35;101386.38;5107350;28;20024;-59
2022/06/22 10:18:09;;;;;;;1.83;1.20;;;;;;;22.42;44.72;101389.94;5107556;28;20075;-60
2022/06/22 10:20:41;;;;;;;1.30;1.20;;;;;;;22.43;44.56;101394.34;5106696;28;20443;-59
2022/06/22 10:23:29;;;;;;;1.85;1.17;;;;;;;22.44;44.82;101385.19;5107592;28;20111;-60
2022/06/22 10:26:07;;;;;;;1.93;1.20;;;;;;;22.46;44.79;101385.84;5106255;28;20060;-60
2022/06/22 10:28:45;;;;;;;3.22;1.33;;;;;;;22.46;44.70;101369.59;5107272;28;20028;-60
2022/06/22 10:31:36;;;;;;;1.40;1.00;;;;;;;22.50;44.55;101371.94;5106895;28;20494;-60
2022/06/22 10:34:19;;;;;;;1.52;1.02;;;;;;;22.51;44.33;101373.63;5088981;28;20461;-60
2022/06/22 10:36:57;;;;;;;2.58;1.60;;;;;;;22.52;44.44;101375.34;5107209;28;20031;-59
2022/06/22 10:39:43;;;;;;;1.10;1.00;;;;;;;22.50;44.12;101353.81;5105427;28;20032;-60
2022/06/22 10:45:18;;;;;;;1.92;1.38;;;;;;;22.55;44.34;101372.22;5091275;28;20055;-60
2022/06/22 10:48:06;;;;;;;1.75;1.20;;;;;;;22.56;44.30;101371.22;5106721;28;20036;-59
2022/06/22 10:51:06;;;;;;;2.43;1.20;;;;;;;22.58;44.20;101369.16;5088382;28;20031;-59
2022/06/22 10:54:03;;;;;;;2.17;1.20;;;;;;;22.59;44.00;101368.13;5007988;28;20045;-60
2022/06/22 10:56:49;;;;;;;2.78;1.35;;;;;;;22.59;43.96;101366.25;5024302;28;20332;-59
2022/06/22 10:59:42;;;;;;;2.63;1.20;;;;;;;22.61;44.24;101357.97;5007562;28;20571;-60
2022/06/22 11:02:29;;;;;;;1.50;1.20;;;;;;;22.62;44.06;101373.19;5023898;28;20037;-59
2022/06/22 11:05:16;;;;;;;1.73;1.13;;;;;;;22.64;44.02;101371.13;5023456;28;20041;-60
2022/06/22 11:07:56;;;;;;;2.35;1.55;;;;;;;22.65;44.03;101362.84;5023405;28;20518;-59
2022/06/22 11:10:41;;;;;;;1.17;1.08;;;;;;;22.64;43.94;101361.16;5029835;28;20036;-59
2022/06/22 11:13:34;;;;;;;1.33;0.82;;;;;;;22.49;44.16;101326.91;5043554;28;20064;-59
2022/06/22 11:16:39;;;;;;;1.95;1.15;;;;;;;22.71;43.96;101364.81;5043606;28;20042;-60
2022/06/22 11:19:52;;;;;;;1.20;0.93;;;;;;;22.74;44.18;101357.34;5043199;28;20025;-58
2022/06/22 11:22:39;;;;;;;2.10;1.13;;;;;;;22.75;43.98;101346.31;5027058;28;20029;-60
2022/06/22 11:31:54;;;;;;;1.23;0.80;;;;;;;22.81;44.08;101334.75;5023699;28;20036;-59
2022/06/22 11:34:28;;;;;;;1.58;1.00;;;;;;;22.82;43.92;101338.31;5006924;28;20033;-59
2022/06/22 11:37:14;;;;;;;2.72;1.13;;;;;;;22.82;43.75;101332.88;5023672;28;20029;-59
2022/06/22 11:39:58;;;;;;;1.95;1.15;;;;;;;22.83;43.65;101337.28;5023170;28;20037;-59
2022/06/22 11:42:41;;;;;;;1.38;1.00;;;;;;;22.82;43.83;101336.44;5022960;28;20029;-59
2022/06/22 11:45:50;;;;;;;1.20;0.95;;;;;;;22.83;43.83;101329.97;5023173;28;20061;-59
2022/06/22 11:48:18;;;;;;;2.05;1.10;;;;;;;22.82;43.81;101335.59;5009121;28;20036;-59
2022/06/22 11:51:14;;;;;;;1.35;1.00;;;;;;;22.83;43.86;101343.53;5022764;28;20034;-60
2022/06/22 11:53:39;;;;;;;1.27;1.00;;;;;;;22.82;44.10;101336.44;5023338;28;20029;-59
2022/06/22 11:56:21;;;;;;;3.45;1.77;;;;;;;22.84;43.84;101325.41;5023225;28;20037;-60
2022/06/22 11:59:00;;;;;;;1.77;1.10;;;;;;;22.83;44.04;101327.25;5023135;28;20045;-60
2022/06/22 12:01:59;;;;;;;0.88;0.88;;;;;;;22.84;43.82;101325.41;5006631;28;20042;-59
2022/06/22 12:04:29;;;;;;;1.52;1.20;;;;;;;22.84;44.16;101325.41;5029180;28;20044;-58
2022/06/22 12:07:08;;;;;;;1.50;1.10;;;;;;;22.84;44.02;101322.69;5087707;28;20027;-60
2022/06/22 12:09:33;;;;;;;;;;;;;;;22.84;44.22;101320.81;5087615;28;20020;-60
2022/06/22 12:12:17;;;;;;;1.20;0.93;;;;;;;22.84;44.29;101323.53;5125138;28;19915;-60
2022/06/22 12:15:10;;;;;;;1.00;0.90;;;;;;;22.84;44.15;101314.56;5125786;28;20081;-59
2022/06/22 12:17:35;;;;;;;1.25;0.95;;;;;;;22.84;44.10;101304.53;5126129;28;20028;-59
2022/06/22 12:20:34;;;;;;;1.75;0.90;;;;;;;22.86;44.24;101309.81;5124837;28;20024;-59
2022/06/22 12:23:17;;;;;;;0.95;0.80;;;;;;;22.86;44.19;101299.78;5107855;28;20034;-59
2022/06/22 12:25:53;;;;;;;1.08;0.85;;;;;;;22.87;44.33;101308.75;5125690;28;20023;-60
2022/06/22 12:29:03;;;;;;;1.13;0.93;;;;;;;22.88;44.12;101302.31;5108103;28;20058;-60
2022/06/22 12:31:41;;;;;;;2.10;1.00;;;;;;;22.89;44.10;101293.97;5042369;28;20049;-59